Markfield, United Kingdom
Current Conditions -  °F | °C
As of 4:20 PM on Sunday 21 Dec 2014 (Local Time) from EGNX Reporting Station
Broken Clouds Broken Clouds  
Wind Chill: 52°   Ceiling: 2300
Heat Index: 52°   Visibility: 6mi
Dew Point: 45°   Wind: 22mph
Humidity: 76%   Direction: 220°SW
Pressure: 30.09"   Gusts: NA
Location:  52.69°N, 1.27°W
Report Text: EGNX 211620Z 22019KT 9999 BKN023 11/07 Q1019
Loading
Personal Weather Stations






























Interactive Weather Map New forecast layout! Learn more

10-Day Weather Forecast

Advertisements
Track Severe Weather on mobile